Cedar Mill, Oregon
Current Conditions -  °F | °C
As of 1:53 AM on Monday 22 Dec 2014 (Local Time) from KHIO Reporting Station
Haze Haze  
Wind Chill: 49°   Ceiling: 2500
Heat Index: 49°   Visibility: 6mi
Dew Point: 49°   Wind: 0mph
Humidity: 100%   Direction: NA
Pressure: 30.21"   Gusts: NA
Location:  45.5251°N, 122.809°W
Report Text: KHIO 220953Z AUTO 00000KT 6SM BR FEW007 BKN025 OVC031 09/09 A3021 RMK AO2 SLP228 T00940094
Loading
Personal Weather Stations






























Interactive Weather Map New forecast layout! Learn more

10-Day Weather Forecast

Advertisements
Track Severe Weather on mobile